Latest Weather Observations for Young

IDN60801

Issued at 12:32 pm EST Tuesday 3 May 2016 (issued every 30 minutes, with the page automatically refreshed every 10 minutes)

About weather observations | Map of weather stations | Latest weather observations for NSW | Other Formats
Station Details ID: 073138 Name: YOUNG AIRPORT Lat: -34.25 Lon: 148.25 Height: 379.6 m
Data from the previous 72 hours. | See also: Recent months at Young
Date/Time
EST
Temp
°C
App
Temp
°C
Dew
Point
Rel
Hum
%
Delta-T
°C
Wind Press
QNH
hPa
Press
MSL
hPa
Rain
since 9 am
mm
Dir
 
Spd
km/h
Gust
km/h
Spd
kts
Gust
kts
03/12:30pm 19.1 14.4 7.8 48 5.9 NW 22 33 12 18 1011.2 1011.3 0.0
03/12:00pm 18.6 13.7 6.8 46 6.0 NW 22 30 12 16 1011.6 1011.7 0.0
03/11:30am 18.2 13.5 6.1 45 6.1 NW 20 28 11 15 1012.2 1012.3 0.0
03/11:00am 17.9 13.7 7.3 50 5.4 NW 19 30 10 16 1012.4 1012.5 0.0
03/10:30am 16.7 12.5 7.6 55 4.7 NNW 19 28 10 15 1012.7 1012.8 0.0
03/10:00am 15.1 12.4 8.8 66 3.3 N 13 20 7 11 1012.8 1012.9 0.0
03/09:30am 13.6 11.3 9.1 74 2.3 NNE 11 15 6 8 1013.2 1013.3 0.0
03/09:00am 11.8 9.8 8.5 80 1.7 NNE 9 11 5 6 1013.5 1013.6 0.0
03/08:30am 9.7 9.2 8.0 89 0.8 CALM 0 6 0 3 1013.8 1013.9 0.0
03/08:00am 7.1 6.3 6.7 97 0.2 CALM 0 0 0 0 1013.8 1013.9 0.0
03/07:30am 5.2 4.1 5.1 99 0.0 CALM 0 0 0 0 1013.7 1013.8 0.0
03/07:00am 3.7 2.3 3.4 98 0.1 CALM 0 0 0 0 1013.5 1013.6 0.0
03/06:30am 4.0 2.6 3.6 97 0.2 CALM 0 0 0 0 1013.2 1013.3 0.0
03/06:00am 4.7 3.5 4.4 98 0.1 CALM 0 0 0 0 1013.2 1013.3 0.0
03/05:30am 5.2 2.9 4.8 97 0.2 SW 6 7 3 4 1013.2 1013.3 0.0
03/05:00am 5.8 3.6 5.4 97 0.2 SSW 6 7 3 4 1013.2 1013.3 0.0
03/04:30am 5.9 4.9 5.6 98 0.1 CALM 0 0 0 0 1013.3 1013.4 0.0
03/04:00am 5.5 4.4 5.1 97 0.2 CALM 0 0 0 0 1013.2 1013.3 0.0
03/03:30am 5.7 4.6 5.1 96 0.3 CALM 0 0 0 0 1013.2 1013.3 0.0
03/03:00am 6.2 3.8 5.2 93 0.4 WSW 7 11 4 6 1013.4 1013.5 0.0
03/02:30am 7.2 6.3 6.1 93 0.5 CALM 0 6 0 3 1013.7 1013.8 0.0
03/02:00am 7.3 6.1 6.4 94 0.4 S 2 9 1 5 1014.3 1014.4 0.0
03/01:30am 7.1 5.5 6.4 95 0.3 SW 4 11 2 6 1014.5 1014.7 0.0
03/01:00am 6.8 4.8 6.1 95 0.3 SSW 6 6 3 3 1014.9 1015.0 0.0
03/12:30am 5.8 3.6 5.2 96 0.3 SSW 6 6 3 3 1015.2 1015.3 0.0
03/12:00am 5.6 3.4 5.2 97 0.2 S 6 7 3 4 1015.4 1015.5 0.0
 
Date/Time
EST
Temp
°C
App
Temp
°C
Dew
Point
Rel
Hum
%
Delta-T
°C
Wind Press
QNH
hPa
Press
MSL
hPa
Rain
since 9 am
mm
Dir
 
Spd
km/h
Gust
km/h
Spd
kts
Gust
kts
02/11:30pm 4.9 2.3 4.2 95 0.3 SW 7 9 4 5 1015.6 1015.7 0.0
02/11:00pm 5.5 3.2 4.6 94 0.4 SSW 6 7 3 4 1015.6 1015.7 0.0
02/10:30pm 5.8 3.3 4.9 94 0.4 SSW 7 7 4 4 1015.7 1015.8 0.0
02/10:00pm 5.9 3.4 5.0 94 0.4 S 7 9 4 5 1015.9 1016.0 0.0
02/09:30pm 5.6 3.1 4.6 93 0.4 SSW 7 7 4 4 1015.7 1015.8 0.0
02/09:00pm 6.1 4.9 4.6 90 0.7 CALM 0 0 0 0 1015.6 1015.7 0.0
02/08:30pm 6.7 4.5 5.2 90 0.7 S 6 9 3 5 1015.7 1015.8 0.0
02/08:00pm 7.4 5.0 5.2 86 1.0 SW 7 11 4 6 1015.5 1015.6 0.0
02/07:30pm 7.8 5.7 5.8 87 0.9 SSW 6 7 3 4 1015.5 1015.6 0.0
02/07:00pm 7.7 5.2 4.8 82 1.3 SW 7 9 4 5 1015.8 1015.9 0.0
02/06:30pm 9.3 8.3 5.5 77 1.8 CALM 0 0 0 0 1015.5 1015.6 0.0
02/06:00pm 10.8 8.5 4.9 67 2.7 WSW 6 9 3 5 1015.5 1015.6 0.0
02/05:30pm 13.1 10.7 4.5 56 4.0 NW 6 7 3 4 1015.4 1015.5 0.0
02/05:00pm 15.2 12.7 4.6 49 5.0 W 7 13 4 7 1015.3 1015.4 0.0
02/04:30pm 16.5 14.0 4.9 46 5.6 WNW 7 15 4 8 1014.8 1014.9 0.0
02/04:00pm 16.5 13.5 4.2 44 5.9 WNW 9 17 5 9 1014.8 1014.9 0.0
02/03:30pm 16.0 12.5 3.4 43 5.9 WNW 11 20 6 11 1015.0 1015.1 0.0
02/03:00pm 16.1 12.7 3.9 44 5.8 NW 11 15 6 8 1014.9 1015.0 0.0
02/02:30pm 16.3 12.9 4.0 44 5.8 NW 11 17 6 9 1014.9 1015.0 0.0
02/02:00pm 16.2 12.0 3.6 43 5.9 NW 15 24 8 13 1015.2 1015.3 0.0
02/01:30pm 16.5 13.1 3.9 43 6.0 NNW 11 22 6 12 1015.5 1015.6 0.0
02/01:00pm 16.3 12.9 4.0 44 5.8 WNW 11 19 6 10 1015.8 1015.9 0.0
02/12:30pm 15.8 12.5 4.5 47 5.4 WNW 11 19 6 10 1016.1 1016.2 0.0
02/12:00pm 15.2 11.5 4.3 48 5.2 NW 13 24 7 13 1016.7 1016.9 0.0
02/11:30am 15.1 12.2 4.5 49 5.0 W 9 15 5 8 1017.0 1017.2 0.0
02/11:00am 14.4 12.0 4.4 51 4.7 W 6 15 3 8 1017.2 1017.4 0.0
02/10:30am 14.5 11.6 4.8 52 4.6 NNE 9 13 5 7 1017.7 1017.8 0.0
02/10:00am 13.8 11.4 5.2 56 4.1 NNE 7 11 4 6 1017.9 1018.0 0.0
02/09:30am 11.9 11.4 7.8 76 2.0 CALM 0 0 0 0 1017.9 1018.0 0.0
02/09:00am 9.6 8.7 7.7 88 0.9 S 2 6 1 3 1018.2 1018.3 1.0
02/08:30am 7.4 5.5 6.7 95 0.3 SSW 6 7 3 4 1018.3 1018.4 1.0
02/08:00am 5.6 3.2 5.3 98 0.1 S 7 7 4 4 1018.3 1018.4 1.0
02/07:30am 4.0 1.9 3.9 99 0.0 SSW 4 7 2 4 1018.3 1018.4 1.0
02/07:00am 2.4 -0.4 2.1 98 0.1 SSW 6 7 3 4 1018.1 1018.2 1.0
02/06:30am 2.7 0.0 2.6 99 0.0 SSW 6 7 3 4 1017.7 1017.8 0.8
02/06:00am 2.7 0.0 2.4 98 0.1 SW 6 7 3 4 1017.8 1017.9 0.8
02/05:30am 2.8 1.2 2.4 97 0.2 CALM 0 0 0 0 1017.5 1017.6 0.8
02/05:00am 3.1 1.5 2.7 97 0.2 CALM 0 0 0 0 1017.2 1017.4 0.8
02/04:30am 3.6 1.4 3.2 97 0.2 S 4 6 2 3 1017.0 1017.2 0.8
02/04:00am 4.0 2.6 3.6 97 0.2 CALM 0 0 0 0 1016.7 1016.9 0.8
02/03:30am 4.4 3.1 4.0 97 0.2 CALM 0 0 0 0 1016.5 1016.6 0.8
02/03:00am 4.9 2.4 4.5 97 0.2 SSW 7 7 4 4 1016.7 1016.9 0.8
02/02:30am 4.9 3.3 4.3 96 0.3 SSW 2 9 1 5 1016.9 1017.1 0.8
02/02:00am 5.4 4.2 4.7 95 0.3 CALM 0 0 0 0 1017.1 1017.3 0.8
02/01:30am 5.9 3.7 5.2 95 0.3 SSE 6 7 3 4 1017.2 1017.4 0.8
02/01:00am 5.9 4.8 5.0 94 0.4 CALM 0 0 0 0 1017.3 1017.5 0.8
02/12:30am 6.5 5.4 5.3 92 0.5 CALM 0 0 0 0 1017.6 1017.7 0.8
02/12:00am 7.2 6.2 5.7 90 0.7 CALM 0 0 0 0 1017.8 1017.9 0.8
 
Date/Time
EST
Temp
°C
App
Temp
°C
Dew
Point
Rel
Hum
%
Delta-T
°C
Wind Press
QNH
hPa
Press
MSL
hPa
Rain
since 9 am
mm
Dir
 
Spd
km/h
Gust
km/h
Spd
kts
Gust
kts
01/11:30pm 7.8 6.5 5.8 87 0.9 SSW 2 6 1 3 1018.1 1018.2 0.8
01/11:00pm 8.3 7.5 6.3 87 0.9 CALM 0 0 0 0 1018.3 1018.4 0.8
01/10:30pm 9.0 6.8 6.3 83 1.3 S 7 9 4 5 1018.3 1018.4 0.8
01/10:00pm 9.9 7.6 5.9 76 1.9 WSW 7 11 4 6 1018.4 1018.5 0.8
01/09:30pm 10.9 8.8 6.5 74 2.1 WSW 7 9 4 5 1018.3 1018.4 0.8
01/09:00pm 11.7 9.6 6.8 72 2.4 WSW 7 13 4 7 1018.1 1018.2 0.8
01/08:30pm 12.1 9.8 7.4 73 2.3 WSW 9 13 5 7 1017.9 1018.0 0.8
01/08:00pm 12.5 10.7 7.2 70 2.6 WNW 6 9 3 5 1017.7 1017.8 0.8
01/07:30pm 13.1 11.7 7.1 67 3.0 W 4 7 2 4 1017.3 1017.5 0.8
01/07:00pm 13.6 11.8 7.2 65 3.2 WNW 6 7 3 4 1016.9 1017.1 0.8
01/06:30pm 13.7 11.7 7.0 64 3.3 WNW 7 11 4 6 1016.6 1016.8 0.8
01/06:00pm 14.6 12.2 6.9 60 3.8 WNW 9 15 5 8 1016.3 1016.4 0.8
01/05:30pm 15.2 12.8 7.0 58 4.1 W 9 15 5 8 1015.9 1016.0 0.8
01/05:00pm 16.2 12.9 6.3 52 4.9 WNW 13 22 7 12 1015.9 1016.0 0.8
01/04:30pm 16.6 13.4 7.0 53 4.9 W 13 20 7 11 1015.6 1015.7 0.8
01/04:00pm 16.9 13.0 7.0 52 5.0 W 17 28 9 15 1015.2 1015.3 0.8
01/03:30pm 18.7 14.0 6.2 44 6.3 WNW 20 32 11 17 1014.9 1015.0 0.8
01/03:00pm 18.9 14.1 7.4 47 5.9 W 22 35 12 19 1014.5 1014.7 0.8
01/02:30pm 19.6 14.5 4.1 36 7.6 WNW 20 37 11 20 1014.1 1014.2 0.8
01/02:00pm 19.3 14.4 8.3 49 5.8 WNW 24 37 13 20 1013.9 1014.0 0.8
01/01:30pm 19.3 15.0 7.7 47 6.0 WNW 20 33 11 18 1013.9 1014.0 0.8
01/01:00pm 19.5 13.9 5.2 39 7.1 WNW 24 44 13 24 1013.9 1014.0 0.8
01/12:30pm 20.8 16.4 8.8 46 6.4 WNW 22 44 12 24 1013.9 1014.0 0.8
01/12:00pm 20.1 16.2 9.4 50 5.8 W 20 41 11 22 1014.3 1014.4 0.8
01/11:30am 20.0 15.3 9.3 50 5.8 W 24 43 13 23 1014.5 1014.7 0.8
01/11:00am 20.4 17.9 13.4 64 4.1 W 19 32 10 17 1014.5 1014.7 0.8
01/10:30am 19.8 17.3 13.5 67 3.7 W 19 33 10 18 1014.3 1014.4 0.8
01/10:00am 18.1 14.7 15.9 87 1.3 NW 28 48 15 26 1014.3 1014.4 0.8
01/09:58am 18.3 15.0 16.1 87 1.3 NW 28 48 15 26 1014.2 1013.7 0.8
01/09:30am 19.6 17.2 16.4 82 2.0 NW 24 43 13 23 1013.8 1013.3 0.0
01/09:10am 19.7 16.5 16.3 81 2.1 NW 28 46 15 25 1014.0 1013.5 0.0
01/09:00am 19.4 16.9 16.2 82 1.9 NW 24 41 13 22 1014.1 1013.6 11.6
01/08:30am 18.3 17.0 16.8 91 0.9 NNW 19 30 10 16 1014.1 1013.6 11.6
01/08:00am 17.8 16.5 16.8 94 0.6 NNW 19 28 10 15 1013.8 1013.3 11.6
01/07:30am 17.6 17.1 17.0 96 0.4 NNW 15 20 8 11 1013.4 1012.8 11.6
01/07:00am 17.5 17.1 17.2 98 0.2 N 15 22 8 12 1013.2 1012.6 11.6
01/06:30am 17.4 16.2 17.1 98 0.2 NNW 19 26 10 14 1013.0 1012.4 11.6
01/06:00am 17.4 16.6 17.2 99 0.1 NNW 17 20 9 11 1013.0 1012.4 11.6
01/05:30am 17.1 16.6 16.8 98 0.2 NNW 15 24 8 13 1013.5 1012.9 11.6
01/05:00am 16.9 16.2 16.3 96 0.4 NNW 15 22 8 12 1013.5 1012.9 11.4
01/04:30am 17.2 15.5 15.7 91 0.9 NNW 19 28 10 15 1013.2 1012.6 10.8
01/04:00am 17.3 15.6 17.1 99 0.1 NW 22 33 12 18 1013.9 1013.4 9.8
01/03:30am 17.0 16.8 16.8 99 0.1 NNW 13 17 7 9 1013.3 1012.7 5.6
01/03:00am 16.7 17.2 16.5 99 0.1 N 9 15 5 8 1013.7 1013.2 1.8
01/02:30am 16.3 16.7 16.3 100 0.0 N 9 13 5 7 1013.1 1012.5 1.0
01/02:00am 15.0 15.3 15.0 100 0.0 ENE 7 13 4 7 1012.8 1012.2 1.0
01/01:30am 12.7 13.1 12.5 99 0.1 WSW 2 9 1 5 1013.8 1013.3 0.0
01/01:00am 12.3 13.0 12.1 99 0.1 CALM 0 0 0 0 1013.7 1013.2 0.0
01/12:30am 12.0 12.6 11.8 99 0.1 CALM 0 0 0 0 1014.3 1013.8 0.0
01/12:00am 12.3 13.0 12.1 99 0.1 CALM 0 0 0 0 1014.8 1014.2 0.0
 
Date/Time
EST
Temp
°C
App
Temp
°C
Dew
Point
Rel
Hum
%
Delta-T
°C
Wind Press
QNH
hPa
Press
MSL
hPa
Rain
since 9 am
mm
Dir
 
Spd
km/h
Gust
km/h
Spd
kts
Gust
kts
30/11:30pm 12.4 12.7 12.2 99 0.1 SSW 2 6 1 3 1014.9 1014.3 0.0
30/11:00pm 12.5 13.2 12.2 98 0.2 CALM 0 7 0 4 1015.7 1015.1 0.0
30/10:30pm 12.5 12.1 12.3 99 0.1 S 6 7 3 4 1016.2 1015.7 0.0
30/10:00pm 12.5 12.8 12.2 98 0.2 S 2 6 1 3 1016.8 1016.3 0.0
30/09:30pm 12.8 13.5 12.3 97 0.3 CALM 0 0 0 0 1016.9 1016.4 0.0
30/09:00pm 13.1 13.5 12.5 96 0.3 SW 2 6 1 3 1016.8 1016.3 0.0
30/08:30pm 13.4 13.1 12.8 96 0.3 SW 6 6 3 3 1016.9 1016.4 0.0
30/08:00pm 13.5 14.0 12.7 95 0.4 SW 2 7 1 4 1016.8 1016.3 0.0
30/07:30pm 14.0 14.8 12.6 91 0.8 CALM 0 0 0 0 1016.9 1016.4 0.0
30/07:00pm 14.5 15.4 12.9 90 0.9 CALM 0 0 0 0 1016.8 1016.3 0.0
30/06:30pm 15.8 16.2 13.6 87 1.3 SSW 4 6 2 3 1016.7 1016.2 0.0
30/06:00pm 17.0 18.2 13.7 81 1.9 CALM 0 0 0 0 1016.7 1016.2 0.0
30/05:30pm 19.1 20.0 13.9 72 3.0 NNW 2 6 1 3 1016.7 1016.2 0.0
30/05:00pm 21.0 21.3 14.4 66 3.9 NNE 6 7 3 4 1016.5 1016.0 0.0
30/04:30pm 21.2 20.6 14.6 66 3.9 NNE 11 15 6 8 1016.7 1016.2 0.0
30/04:00pm 21.1 20.9 14.7 67 3.8 N 9 13 5 7 1016.6 1016.1 0.0
30/03:30pm 22.1 21.4 14.2 61 4.7 N 11 19 6 10 1016.6 1016.1 0.0
30/03:00pm 21.8 21.1 14.2 62 4.5 NNW 11 19 6 10 1016.6 1016.1 0.0
30/02:30pm 21.0 19.9 14.4 66 3.9 N 13 19 7 10 1017.0 1016.5 0.0
30/02:00pm 21.5 21.4 14.9 66 4.0 N 9 13 5 7 1017.0 1016.5 0.0
30/01:30pm 20.3 20.2 14.9 71 3.2 NNW 9 15 5 8 1017.3 1016.8 0.0
30/01:00pm 20.3 19.8 14.9 71 3.2 N 11 19 6 10 1017.6 1017.0 0.0

Other Formats:

Comma delimited format used in spreadsheet applications
http://www.bom.gov.au/fwo/IDN60801/IDN60801.94712.axf

JavaScript Object Notation format (JSON) in row-major order
http://www.bom.gov.au/fwo/IDN60801/IDN60801.94712.json